EDT,Max TemperatureF,Mean TemperatureF,Min TemperatureF,Max Dew PointF,MeanDew PointF,Min DewpointF,Max Humidity, Mean Humidity, Min Humidity, Max Sea Level PressureIn, Mean Sea Level PressureIn, Min Sea Level PressureIn, Max VisibilityMiles, Mean VisibilityMiles, Min VisibilityMiles, Max Wind SpeedMPH, Mean Wind SpeedMPH, Max Gust SpeedMPH,PrecipitationIn, CloudCover, Events, WindDirDegrees
2013-4-1,35,30,24,28,15,9,68,52,35,30.11,29.95,29.71,10,10,3,25,14,31,T,5,Snow,294
2013-4-2,41,31,21,18,13,9,81,54,27,30.26,30.16,30.10,10,10,10,22,11,29,0.00,3,,284
2013-4-3,42,31,20,16,13,11,68,49,29,30.45,30.37,30.26,10,10,10,20,8,22,0.00,0,,287
2013-4-4,56,43,29,28,19,15,60,43,26,30.33,30.12,29.94,10,10,10,25,12,32,0.00,1,,227
2013-4-5,46,38,29,30,22,14,78,52,26,30.24,30.14,29.97,10,10,10,18,9,22,0.00,1,,7
2013-4-6,52,40,28,28,21,18,69,49,29,30.25,30.07,29.70,10,10,10,24,13,36,T,6,Rain,141
2013-4-7,56,45,34,46,35,28,77,62,46,30.06,29.81,29.53,10,10,10,31,14,37,T,8,Rain,271
2013-4-8,47,39,30,44,37,27,100,80,60,30.06,29.88,29.70,10,5,0,18,8,22,0.60,5,Rain,71
2013-4-9,43,40,37,43,38,35,100,93,85,30.12,30.02,29.91,10,6,1,22,9,25,1.27,8,Rain,47
2013-4-10,38,38,37,38,35,32,100,91,82,30.08,30.03,29.97,10,8,1,31,17,36,0.47,8,Rain,44
2013-4-11,37,35,33,34,33,30,100,93,85,30.05,29.94,29.73,10,5,2,33,17,41,0.83,8,Rain,63
2013-4-12,42,38,33,39,36,33,100,88,76,29.74,29.66,29.57,10,7,2,21,11,25,0.30,8,Rain,257
2013-4-13,42,38,33,36,33,26,92,78,64,29.98,29.80,29.73,10,8,0,29,13,36,0.03,8,Rain-Snow,250
2013-4-14,45,38,30,35,31,28,92,75,57,30.12,30.04,29.94,10,10,10,17,7,20,T,2,Rain,146
2013-4-15,68,51,34,57,48,33,100,79,58,29.93,29.89,29.82,10,9,2,23,10,30,0.29,4,Rain,198
2013-4-16,57,49,41,54,43,34,100,72,43,30.30,30.03,29.89,10,8,2,18,10,29,0.47,5,Rain,287
2013-4-17,47,42,37,41,38,34,96,86,76,30.40,30.28,30.06,10,8,2,29,10,33,0.45,5,Rain-Thunderstorm,55
2013-4-18,70,57,43,63,51,42,100,89,78,30.03,29.71,29.46,10,7,2,33,12,44,1.37,7,Rain,122
2013-4-19,60,47,34,59,39,26,100,83,65,29.70,29.45,29.35,10,9,2,40,22,53,0.33,8,Rain-Snow,232
2013-4-20,38,33,28,25,21,18,69,59,48,30.48,30.13,29.73,10,10,9,23,13,31,T,6,,295
2013-4-21,50,38,25,27,23,18,85,61,36,30.65,30.55,30.48,10,10,10,16,8,21,0.00,0,,134
2013-4-22,64,48,31,41,30,26,82,54,25,30.47,30.33,30.19,10,10,10,14,7,17,0.00,0,,142
2013-4-23,63,52,40,54,44,35,100,76,51,30.18,29.95,29.82,10,9,2,28,9,32,0.36,5,Rain,201
2013-4-24,47,41,34,39,33,23,100,73,45,30.10,29.91,29.85,10,8,2,20,11,23,0.27,6,Rain-Snow,321
2013-4-25,50,43,36,34,31,25,82,62,42,30.34,30.13,30.04,10,9,2,24,12,32,0.05,4,Rain,236
2013-4-26,61,48,35,39,33,29,82,61,39,30.44,30.36,30.30,10,10,10,20,10,25,0.00,0,,197
2013-4-27,71,58,45,45,39,36,71,50,28,30.31,30.24,30.11,10,10,10,15,8,21,0.00,0,,187
2013-4-28,67,58,48,54,47,38,100,76,52,30.10,29.95,29.87,10,9,2,20,6,22,0.01,7,Rain,110
2013-4-29,71,62,53,54,53,51,100,75,49,29.93,29.88,29.86,10,8,2,12,6,15,0.00,5,,228
2013-4-30,74,66,57,56,54,52,86,70,53,30.02,29.96,29.91,10,8,2,25,13,31,0.23,4,Rain,169